AUA25 LHBP-LOWW
Flight info
| Callsign | AUA25 |
|---|---|
| Flight time | 0h 29m |
| Altitude | 20000 |
| Route | GILEP DCT NATEX NATEX2W |
| Aircraft | A319/M-SDE3FGHIRWY/LB1 |
Departure
| Time | 2026-04-22 17:54 |
|---|---|
| Airport | Budapest Liszt Ferenc International Airport (LHBP) |
Arrival
| Time | 2026-04-22 18:23 |
|---|---|
| Airport | Vienna International Airport (LOWW) |
| Time | Latitude | Longitude | Altitude | Speed | Heading |
|---|---|---|---|---|---|
| 2026-04-22 17:31 | 47.43506 | 19.26471 | 458 ft | 0 kts | 222° |
| 2026-04-22 17:32 | 47.43507 | 19.26473 | 458 ft | 0 kts | 222° |
| 2026-04-22 17:45 | 47.43516 | 19.26485 | 458 ft | 3 kts | 222° |
| 2026-04-22 17:45 | 47.43529 | 19.26502 | 458 ft | 3 kts | 226° |
| 2026-04-22 17:45 | 47.43540 | 19.26524 | 458 ft | 3 kts | 258° |
| 2026-04-22 17:46 | 47.43540 | 19.26550 | 458 ft | 3 kts | 298° |
| 2026-04-22 17:46 | 47.43528 | 19.26574 | 454 ft | 3 kts | 315° |
| 2026-04-22 17:46 | 47.43514 | 19.26594 | 455 ft | 2 kts | 314° |
| 2026-04-22 17:46 | 47.43511 | 19.26599 | 456 ft | 0 kts | 312° |
| 2026-04-22 17:49 | 47.43518 | 19.26588 | 456 ft | 2 kts | 311° |
| 2026-04-22 17:49 | 47.43530 | 19.26568 | 457 ft | 3 kts | 312° |
| 2026-04-22 17:49 | 47.43549 | 19.26536 | 458 ft | 5 kts | 312° |
| 2026-04-22 17:49 | 47.43576 | 19.26493 | 458 ft | 7 kts | 312° |
| 2026-04-22 17:50 | 47.43611 | 19.26435 | 458 ft | 8 kts | 312° |
| 2026-04-22 17:50 | 47.43654 | 19.26365 | 458 ft | 10 kts | 311° |
| 2026-04-22 17:50 | 47.43677 | 19.26265 | 458 ft | 11 kts | 271° |
| 2026-04-22 17:50 | 47.43674 | 19.26145 | 457 ft | 12 kts | 269° |
| 2026-04-22 17:51 | 47.43700 | 19.26026 | 457 ft | 13 kts | 309° |
| 2026-04-22 17:51 | 47.43727 | 19.25907 | 457 ft | 13 kts | 246° |
| 2026-04-22 17:51 | 47.43658 | 19.25811 | 456 ft | 14 kts | 221° |
| 2026-04-22 17:51 | 47.43583 | 19.25712 | 456 ft | 15 kts | 221° |
| 2026-04-22 17:52 | 47.43502 | 19.25606 | 455 ft | 16 kts | 221° |
| 2026-04-22 17:52 | 47.43418 | 19.25489 | 457 ft | 17 kts | 225° |
| 2026-04-22 17:52 | 47.43330 | 19.25369 | 457 ft | 18 kts | 221° |
| 2026-04-22 17:52 | 47.43236 | 19.25245 | 456 ft | 19 kts | 222° |
| 2026-04-22 17:53 | 47.43161 | 19.25145 | 457 ft | 12 kts | 223° |
| 2026-04-22 17:53 | 47.43104 | 19.25052 | 457 ft | 13 kts | 242° |
| 2026-04-22 17:53 | 47.43116 | 19.24914 | 455 ft | 17 kts | 309° |
| 2026-04-22 17:53 | 47.43324 | 19.24576 | 453 ft | 84 kts | 312° |
| 2026-04-22 17:54 | 47.43881 | 19.23673 | 477 ft | 147 kts | 312° |
| 2026-04-22 17:54 | 47.44601 | 19.22549 | 1074 ft | 154 kts | 314° |
| 2026-04-22 17:54 | 47.45347 | 19.21374 | 1796 ft | 160 kts | 313° |
| 2026-04-22 17:54 | 47.46146 | 19.20032 | 2196 ft | 187 kts | 312° |
| 2026-04-22 17:55 | 47.47079 | 19.18473 | 2621 ft | 217 kts | 313° |
| 2026-04-22 17:55 | 47.48108 | 19.16745 | 3427 ft | 228 kts | 313° |
| 2026-04-22 17:55 | 47.49015 | 19.14665 | 4075 ft | 254 kts | 293° |
| 2026-04-22 17:55 | 47.49309 | 19.12040 | 5045 ft | 267 kts | 270° |
| 2026-04-22 17:56 | 47.48890 | 19.09325 | 6034 ft | 279 kts | 250° |
| 2026-04-22 17:56 | 47.47843 | 19.06854 | 7038 ft | 287 kts | 231° |
| 2026-04-22 17:56 | 47.46348 | 19.04894 | 8175 ft | 289 kts | 214° |
| 2026-04-22 17:56 | 47.44547 | 19.03610 | 9323 ft | 290 kts | 199° |
| 2026-04-22 17:57 | 47.42650 | 19.02492 | 10227 ft | 298 kts | 213° |
| 2026-04-22 17:57 | 47.41238 | 19.00249 | 10913 ft | 309 kts | 244° |
| 2026-04-22 17:57 | 47.40716 | 18.97104 | 11280 ft | 328 kts | 274° |
| 2026-04-22 17:57 | 47.41316 | 18.93835 | 11834 ft | 337 kts | 299° |
| 2026-04-22 17:58 | 47.42487 | 18.90868 | 12683 ft | 341 kts | 303° |
| 2026-04-22 17:58 | 47.43720 | 18.87840 | 13588 ft | 345 kts | 303° |
| 2026-04-22 17:58 | 47.44961 | 18.84806 | 13990 ft | 348 kts | 303° |
| 2026-04-22 17:58 | 47.46162 | 18.81697 | 14102 ft | 349 kts | 298° |
| 2026-04-22 17:59 | 47.47115 | 18.78385 | 14126 ft | 351 kts | 292° |
| 2026-04-22 17:59 | 47.47888 | 18.74965 | 14128 ft | 351 kts | 289° |
| 2026-04-22 17:59 | 47.48582 | 18.71502 | 14129 ft | 351 kts | 288° |
| 2026-04-22 17:59 | 47.49261 | 18.68031 | 14133 ft | 351 kts | 289° |
| 2026-04-22 18:00 | 47.49731 | 18.65688 | 14125 ft | 351 kts | 290° |
| 2026-04-22 18:00 | 47.50687 | 18.61114 | 14138 ft | 352 kts | 291° |
| 2026-04-22 18:00 | 47.51437 | 18.57662 | 14139 ft | 352 kts | 291° |
| 2026-04-22 18:00 | 47.52199 | 18.54222 | 14139 ft | 352 kts | 291° |
| 2026-04-22 18:01 | 47.52965 | 18.50782 | 14141 ft | 352 kts | 291° |
| 2026-04-22 18:01 | 47.53729 | 18.47342 | 14139 ft | 352 kts | 291° |
| 2026-04-22 18:01 | 47.54491 | 18.43899 | 14141 ft | 352 kts | 291° |
| 2026-04-22 18:01 | 47.55250 | 18.40451 | 14139 ft | 352 kts | 291° |
| 2026-04-22 18:02 | 47.56006 | 18.37000 | 14136 ft | 352 kts | 291° |
| 2026-04-22 18:02 | 47.56760 | 18.33558 | 14149 ft | 352 kts | 291° |
| 2026-04-22 18:02 | 47.57513 | 18.30116 | 14150 ft | 352 kts | 291° |
| 2026-04-22 18:02 | 47.58269 | 18.26664 | 14140 ft | 353 kts | 291° |
| 2026-04-22 18:03 | 47.59027 | 18.23208 | 14151 ft | 354 kts | 291° |
| 2026-04-22 18:03 | 47.59786 | 18.19733 | 14154 ft | 354 kts | 291° |
| 2026-04-22 18:03 | 47.60541 | 18.16257 | 14155 ft | 354 kts | 291° |
| 2026-04-22 18:03 | 47.61293 | 18.12782 | 14155 ft | 354 kts | 291° |
| 2026-04-22 18:04 | 47.62045 | 18.09306 | 14153 ft | 355 kts | 291° |
| 2026-04-22 18:04 | 47.62797 | 18.05825 | 14154 ft | 355 kts | 291° |
| 2026-04-22 18:04 | 47.63537 | 18.02388 | 14161 ft | 354 kts | 291° |
| 2026-04-22 18:04 | 47.64287 | 17.98904 | 14161 ft | 355 kts | 291° |
| 2026-04-22 18:05 | 47.65000 | 17.95402 | 14161 ft | 356 kts | 286° |
| 2026-04-22 18:05 | 47.65256 | 17.91724 | 14162 ft | 360 kts | 277° |
| 2026-04-22 18:05 | 47.65402 | 17.88023 | 13777 ft | 359 kts | 276° |
| 2026-04-22 18:05 | 47.65532 | 17.84328 | 13138 ft | 359 kts | 276° |
| 2026-04-22 18:06 | 47.65650 | 17.80650 | 12569 ft | 355 kts | 276° |
| 2026-04-22 18:06 | 47.65763 | 17.77009 | 12003 ft | 352 kts | 276° |
| 2026-04-22 18:06 | 47.65877 | 17.73407 | 11534 ft | 345 kts | 276° |
| 2026-04-22 18:06 | 47.65984 | 17.69983 | 11396 ft | 320 kts | 276° |
| 2026-04-22 18:07 | 47.66050 | 17.67849 | 11299 ft | 305 kts | 276° |
| 2026-04-22 18:07 | 47.66181 | 17.63756 | 10752 ft | 292 kts | 277° |
| 2026-04-22 18:07 | 47.66281 | 17.60775 | 10277 ft | 287 kts | 277° |
| 2026-04-22 18:07 | 47.66381 | 17.57816 | 10021 ft | 287 kts | 276° |
| 2026-04-22 18:08 | 47.66481 | 17.54858 | 9977 ft | 287 kts | 277° |
| 2026-04-22 18:08 | 47.66579 | 17.51916 | 9686 ft | 285 kts | 277° |
| 2026-04-22 18:08 | 47.66676 | 17.48988 | 9268 ft | 283 kts | 276° |
| 2026-04-22 18:08 | 47.66770 | 17.46079 | 8863 ft | 281 kts | 276° |
| 2026-04-22 18:09 | 47.66859 | 17.43195 | 8479 ft | 278 kts | 277° |
| 2026-04-22 18:09 | 47.66943 | 17.40380 | 8081 ft | 276 kts | 277° |
| 2026-04-22 18:09 | 47.67028 | 17.37543 | 7665 ft | 275 kts | 277° |
| 2026-04-22 18:09 | 47.67113 | 17.34724 | 7276 ft | 272 kts | 277° |
| 2026-04-22 18:10 | 47.67204 | 17.31927 | 6876 ft | 270 kts | 278° |
| 2026-04-22 18:10 | 47.67654 | 17.29285 | 6459 ft | 261 kts | 297° |
| 2026-04-22 18:10 | 47.68363 | 17.26813 | 6053 ft | 259 kts | 297° |
| 2026-04-22 18:10 | 47.69068 | 17.24361 | 5987 ft | 259 kts | 297° |
| 2026-04-22 18:11 | 47.69757 | 17.21966 | 5987 ft | 243 kts | 297° |
| 2026-04-22 18:11 | 47.70395 | 17.19732 | 6003 ft | 230 kts | 298° |
| 2026-04-22 18:11 | 47.71021 | 17.17553 | 6004 ft | 228 kts | 299° |
| 2026-04-22 18:11 | 47.71800 | 17.15529 | 6017 ft | 225 kts | 306° |
| 2026-04-22 18:12 | 47.72631 | 17.13557 | 6002 ft | 225 kts | 307° |
| 2026-04-22 18:12 | 47.73470 | 17.11593 | 6017 ft | 225 kts | 307° |
| 2026-04-22 18:12 | 47.74027 | 17.10292 | 6003 ft | 225 kts | 307° |
| 2026-04-22 18:12 | 47.75153 | 17.07672 | 6004 ft | 225 kts | 307° |
| 2026-04-22 18:13 | 47.75994 | 17.05709 | 6001 ft | 224 kts | 307° |
| 2026-04-22 18:13 | 47.76823 | 17.03763 | 5816 ft | 221 kts | 307° |
| 2026-04-22 18:13 | 47.77644 | 17.01832 | 5469 ft | 221 kts | 307° |
| 2026-04-22 18:13 | 47.78464 | 16.99906 | 5132 ft | 220 kts | 307° |
| 2026-04-22 18:14 | 47.79279 | 16.97987 | 4796 ft | 219 kts | 307° |
| 2026-04-22 18:14 | 47.80089 | 16.96079 | 4463 ft | 218 kts | 307° |
| 2026-04-22 18:14 | 47.80895 | 16.94171 | 4147 ft | 217 kts | 307° |
| 2026-04-22 18:14 | 47.81694 | 16.92273 | 3812 ft | 216 kts | 307° |
| 2026-04-22 18:15 | 47.82481 | 16.90407 | 3504 ft | 215 kts | 307° |
| 2026-04-22 18:15 | 47.83278 | 16.88521 | 3161 ft | 215 kts | 307° |
| 2026-04-22 18:15 | 47.84070 | 16.86645 | 2999 ft | 214 kts | 307° |
| 2026-04-22 18:15 | 47.84863 | 16.84765 | 3011 ft | 215 kts | 306° |
| 2026-04-22 18:16 | 47.85660 | 16.82877 | 3016 ft | 215 kts | 307° |
| 2026-04-22 18:16 | 47.86457 | 16.80993 | 3007 ft | 215 kts | 307° |
| 2026-04-22 18:16 | 47.87254 | 16.79104 | 3011 ft | 215 kts | 306° |
| 2026-04-22 18:16 | 47.88048 | 16.77218 | 3011 ft | 215 kts | 306° |
| 2026-04-22 18:17 | 47.88840 | 16.75336 | 3017 ft | 214 kts | 306° |
| 2026-04-22 18:17 | 47.89631 | 16.73455 | 3016 ft | 215 kts | 306° |
| 2026-04-22 18:17 | 47.90427 | 16.71560 | 3015 ft | 215 kts | 306° |
| 2026-04-22 18:17 | 47.91220 | 16.69666 | 3015 ft | 216 kts | 306° |
| 2026-04-22 18:18 | 47.92016 | 16.67768 | 3007 ft | 216 kts | 307° |
| 2026-04-22 18:18 | 47.93011 | 16.66152 | 3010 ft | 211 kts | 327° |
| 2026-04-22 18:18 | 47.94327 | 16.65249 | 3008 ft | 208 kts | 346° |
| 2026-04-22 18:18 | 47.95703 | 16.64674 | 3011 ft | 199 kts | 346° |
| 2026-04-22 18:19 | 47.96990 | 16.64135 | 2954 ft | 186 kts | 346° |
| 2026-04-22 18:19 | 47.98198 | 16.63628 | 2813 ft | 177 kts | 345° |
| 2026-04-22 18:19 | 47.99368 | 16.63136 | 2568 ft | 172 kts | 345° |
| 2026-04-22 18:19 | 48.00473 | 16.62671 | 2350 ft | 157 kts | 345° |
| 2026-04-22 18:20 | 48.01470 | 16.62251 | 2157 ft | 140 kts | 345° |
| 2026-04-22 18:20 | 48.02353 | 16.61879 | 1967 ft | 126 kts | 345° |
| 2026-04-22 18:20 | 48.03180 | 16.61531 | 1800 ft | 121 kts | 345° |
| 2026-04-22 18:20 | 48.03981 | 16.61193 | 1639 ft | 119 kts | 345° |
| 2026-04-22 18:21 | 48.04776 | 16.60859 | 1468 ft | 119 kts | 345° |
| 2026-04-22 18:21 | 48.05578 | 16.60520 | 1302 ft | 120 kts | 345° |
| 2026-04-22 18:21 | 48.06372 | 16.60186 | 1147 ft | 118 kts | 345° |
| 2026-04-22 18:21 | 48.07166 | 16.59851 | 982 ft | 120 kts | 345° |
| 2026-04-22 18:22 | 48.07972 | 16.59510 | 828 ft | 120 kts | 345° |
| 2026-04-22 18:22 | 48.08772 | 16.59173 | 688 ft | 118 kts | 343° |
| 2026-04-22 18:22 | 48.09507 | 16.58854 | 616 ft | 95 kts | 344° |
| 2026-04-22 18:22 | 48.09998 | 16.58655 | 614 ft | 65 kts | 345° |
| 2026-04-22 18:23 | 48.10436 | 16.58470 | 610 ft | 63 kts | 344° |
| 2026-04-22 18:23 | 48.10842 | 16.58298 | 621 ft | 58 kts | 344° |
| 2026-04-22 18:23 | 48.11001 | 16.58161 | 612 ft | 0 kts | 314° |
| 2026-04-22 18:24 | 48.11007 | 16.58151 | 608 ft | 2 kts | 313° |
| 2026-04-22 18:24 | 48.11017 | 16.58135 | 613 ft | 4 kts | 310° |
| 2026-04-22 18:24 | 48.11058 | 16.58017 | 608 ft | 11 kts | 300° |
| 2026-04-22 18:25 | 48.11124 | 16.57817 | 606 ft | 31 kts | 295° |
| 2026-04-22 18:25 | 48.11231 | 16.57485 | 613 ft | 30 kts | 296° |
| 2026-04-22 18:25 | 48.11282 | 16.57335 | 612 ft | 13 kts | 296° |
| 2026-04-22 18:26 | 48.11356 | 16.57361 | 611 ft | 13 kts | 31° |
| 2026-04-22 18:26 | 48.11443 | 16.57330 | 610 ft | 17 kts | 298° |
| 2026-04-22 18:26 | 48.11501 | 16.57166 | 607 ft | 19 kts | 297° |
| 2026-04-22 18:26 | 48.11548 | 16.57015 | 615 ft | 0 kts | 295° |
| 2026-04-22 18:27 | 48.11550 | 16.57007 | 615 ft | 2 kts | 295° |
| 2026-04-22 18:27 | 48.11565 | 16.56961 | 612 ft | 13 kts | 295° |
| 2026-04-22 18:27 | 48.11610 | 16.56825 | 612 ft | 1 kts | 296° |
| 2026-04-22 18:27 | 48.11646 | 16.56810 | 602 ft | 10 kts | 18° |
| 2026-04-22 18:28 | 48.11701 | 16.56850 | 601 ft | 0 kts | 26° |